Time;durP1;ratioP1;P1;durP2;ratioP2;P2;SDS_P1;SDS_P2;PMS_P1;PMS_P2;Temp;Humidity;BMP_temperature;BMP_pressure;BME280_temperature;BME280_humidity;BME280_pressure;Samples;Min_cycle;Max_cycle;Signal;HPM_P1;HPM_P2
2023/06/14 00:00:42;;;;;;;6.63;5.50;;;;;;;;;;6165045;28;20054;-80
2023/06/14 00:03:43;;;;;;;7.95;5.88;;;;;;;;;;6178837;28;20061;-81
2023/06/14 00:06:46;;;;;;;8.40;5.95;;;;;;;;;;6171668;28;20142;-81
2023/06/14 00:09:47;;;;;;;10.55;6.10;;;;;;;;;;6158353;28;20062;-82
2023/06/14 00:12:49;;;;;;;8.15;6.10;;;;;;;;;;6168873;28;20039;-81
2023/06/14 00:15:54;;;;;;;9.18;6.28;;;;;;;;;;6181070;28;20869;-81
2023/06/14 00:18:56;;;;;;;7.30;6.30;;;;;;;;;;6159081;28;20501;-80
2023/06/14 00:21:58;;;;;;;8.73;6.07;;;;;;;;;;6165572;28;20512;-81
2023/06/14 00:25:00;;;;;;;7.47;6.15;;;;;;;;;;6157184;28;20200;-81
2023/06/14 00:28:15;;;;;;;8.23;6.47;;;;;;;;;;6163110;28;20133;-80
2023/06/14 00:31:18;;;;;;;7.67;6.47;;;;;;;;;;6176211;28;20596;-80
2023/06/14 00:34:19;;;;;;;7.85;6.57;;;;;;;;;;6157143;28;20125;-80
2023/06/14 00:37:21;;;;;;;12.07;7.35;;;;;;;;;;6172519;28;20539;-81
2023/06/14 00:40:23;;;;;;;8.05;6.65;;;;;;;;;;6156802;28;20485;-82
2023/06/14 00:43:25;;;;;;;9.73;6.90;;;;;;;;;;6160166;28;20500;-81
2023/06/14 00:46:27;;;;;;;10.85;7.00;;;;;;;;;;6178995;28;20552;-80
2023/06/14 00:49:29;;;;;;;8.63;6.95;;;;;;;;;;6165634;28;20053;-80
2023/06/14 00:52:32;;;;;;;10.13;7.47;;;;;;;;;;6172272;28;20051;-81
2023/06/14 00:55:34;;;;;;;9.18;6.63;;;;;;;;;;6140165;28;20039;-80
2023/06/14 00:58:35;;;;;;;9.45;6.97;;;;;;;;;;6166390;28;20420;-80
2023/06/14 01:01:38;;;;;;;8.18;7.20;;;;;;;;;;6168965;28;20042;-82
2023/06/14 01:04:48;;;;;;;8.93;7.15;;;;;;;;;;6148985;28;20469;-81
2023/06/14 01:08:04;;;;;;;9.93;7.40;;;;;;;;;;6155102;28;20078;-81
2023/06/14 01:11:12;;;;;;;8.43;6.63;;;;;;;;;;6161605;28;20046;-80
2023/06/14 01:14:16;;;;;;;9.63;6.75;;;;;;;;;;6145955;28;20657;-81
2023/06/14 01:17:17;;;;;;;9.02;6.80;;;;;;;;;;6177847;28;20054;-81
2023/06/14 01:20:22;;;;;;;10.73;7.18;;;;;;;;;;6161434;28;20425;-81
2023/06/14 01:23:25;;;;;;;8.90;7.20;;;;;;;;;;6165854;28;20042;-80
2023/06/14 01:26:29;;;;;;;7.70;6.55;;;;;;;;;;6164843;28;20045;-80
2023/06/14 01:29:36;;;;;;;8.38;6.82;;;;;;;;;;6166473;28;20129;-80
2023/06/14 01:32:37;;;;;;;8.63;7.20;;;;;;;;;;6155706;28;20050;-81
2023/06/14 01:35:44;;;;;;;12.18;6.78;;;;;;;;;;6165561;28;20042;-79
2023/06/14 01:38:50;;;;;;;8.48;6.63;;;;;;;;;;6181654;28;20042;-80
2023/06/14 01:41:54;;;;;;;11.93;6.90;;;;;;;;;;6169745;28;20070;-80
2023/06/14 01:44:56;;;;;;;8.80;6.75;;;;;;;;;;6148469;28;20039;-80
2023/06/14 01:47:59;;;;;;;9.20;7.53;;;;;;;;;;6175799;28;20053;-80
2023/06/14 01:51:01;;;;;;;8.90;6.95;;;;;;;;;;6154204;28;20043;-80
2023/06/14 01:54:03;;;;;;;8.15;6.72;;;;;;;;;;6181835;28;20047;-82
2023/06/14 01:57:06;;;;;;;9.10;6.63;;;;;;;;;;6168327;28;20173;-81
2023/06/14 02:00:12;;;;;;;7.95;6.97;;;;;;;;;;6165134;28;20038;-80
2023/06/14 02:03:15;;;;;;;8.02;6.50;;;;;;;;;;6177150;28;20074;-80
2023/06/14 02:06:16;;;;;;;8.52;6.25;;;;;;;;;;6147045;28;20156;-80
2023/06/14 02:09:18;;;;;;;7.50;6.30;;;;;;;;;;6147365;28;20117;-80
2023/06/14 02:12:20;;;;;;;7.03;6.32;;;;;;;;;;6175214;28;20603;-80
2023/06/14 02:15:23;;;;;;;8.35;6.32;;;;;;;;;;6160001;28;20129;-81
2023/06/14 02:18:25;;;;;;;7.35;6.32;;;;;;;;;;6161787;28;20083;-80
2023/06/14 02:21:26;;;;;;;7.60;6.28;;;;;;;;;;6176150;28;20050;-81
2023/06/14 02:24:28;;;;;;;9.10;6.47;;;;;;;;;;6159905;28;20217;-80
2023/06/14 02:27:30;;;;;;;8.60;6.68;;;;;;;;;;6160620;28;20110;-80
2023/06/14 02:30:32;;;;;;;9.43;6.78;;;;;;;;;;6158929;28;20042;-80
2023/06/14 02:33:33;;;;;;;8.40;6.40;;;;;;;;;;6157614;28;20393;-80
2023/06/14 02:36:41;;;;;;;7.40;6.60;;;;;;;;;;6177874;28;20039;-79
2023/06/14 02:39:43;;;;;;;7.55;6.20;;;;;;;;;;6153298;28;20049;-79
2023/06/14 02:42:44;;;;;;;9.52;6.47;;;;;;;;;;6140825;28;20039;-78
2023/06/14 02:45:46;;;;;;;8.50;6.97;;;;;;;;;;6172570;28;20046;-79
2023/06/14 02:48:48;;;;;;;7.97;6.43;;;;;;;;;;6174732;28;20049;-79
2023/06/14 02:51:49;;;;;;;9.65;7.03;;;;;;;;;;6169097;28;20050;-79
2023/06/14 02:54:51;;;;;;;9.70;6.47;;;;;;;;;;6166307;28;20431;-79
2023/06/14 02:57:53;;;;;;;8.75;5.45;;;;;;;;;;6166093;28;20046;-79
2023/06/14 03:00:55;;;;;;;9.05;5.40;;;;;;;;;;6145716;28;20505;-78
2023/06/14 03:03:57;;;;;;;6.47;5.20;;;;;;;;;;6162967;28;20054;-78
2023/06/14 03:06:59;;;;;;;7.63;5.57;;;;;;;;;;6189659;28;20057;-78
2023/06/14 03:10:03;;;;;;;8.77;6.10;;;;;;;;;;6165886;28;20139;-80
2023/06/14 03:13:05;;;;;;;8.63;6.63;;;;;;;;;;6185160;28;20045;-78
2023/06/14 03:16:07;;;;;;;8.18;6.10;;;;;;;;;;6173014;28;20156;-81
2023/06/14 03:19:11;;;;;;;13.27;6.72;;;;;;;;;;6178113;28;20122;-79
2023/06/14 03:22:13;;;;;;;10.00;7.05;;;;;;;;;;6183106;28;20043;-80
2023/06/14 03:25:15;;;;;;;9.35;6.70;;;;;;;;;;6199732;28;20065;-79
2023/06/14 03:28:19;;;;;;;10.88;6.95;;;;;;;;;;6183873;28;20180;-78
2023/06/14 03:31:21;;;;;;;10.27;6.57;;;;;;;;;;6186086;28;20105;-80
2023/06/14 03:34:24;;;;;;;9.10;6.28;;;;;;;;;;6179072;28;20046;-78
2023/06/14 03:37:25;;;;;;;10.50;6.45;;;;;;;;;;6197018;28;20065;-78
2023/06/14 03:40:27;;;;;;;9.13;5.43;;;;;;;;;;6188488;28;20512;-80
2023/06/14 03:43:35;;;;;;;8.15;5.32;;;;;;;;;;6184648;28;20516;-80
2023/06/14 03:46:38;;;;;;;9.23;6.10;;;;;;;;;;6205327;28;20045;-79
2023/06/14 03:49:39;;;;;;;7.75;5.97;;;;;;;;;;6178901;28;20049;-79
2023/06/14 03:52:43;;;;;;;9.85;6.35;;;;;;;;;;6187647;28;20127;-78
2023/06/14 03:55:46;;;;;;;9.55;6.45;;;;;;;;;;6198978;28;20042;-79
2023/06/14 03:58:50;;;;;;;10.15;6.78;;;;;;;;;;6211217;28;20057;-82
2023/06/14 04:01:54;;;;;;;11.88;6.10;;;;;;;;;;6190603;28;20042;-79
2023/06/14 04:04:56;;;;;;;13.85;7.30;;;;;;;;;;6180999;28;20046;-79
2023/06/14 04:07:58;;;;;;;11.13;6.20;;;;;;;;;;6183483;28;20100;-78
2023/06/14 04:11:01;;;;;;;11.38;6.03;;;;;;;;;;6173878;28;20076;-78
2023/06/14 04:14:03;;;;;;;10.88;7.65;;;;;;;;;;6190707;28;20525;-78
2023/06/14 04:17:05;;;;;;;10.80;6.70;;;;;;;;;;6184231;28;20038;-79
2023/06/14 04:20:09;;;;;;;8.60;6.83;;;;;;;;;;6193390;28;20053;-78
2023/06/14 04:23:17;;;;;;;7.30;5.80;;;;;;;;;;6183581;28;20420;-78
2023/06/14 04:26:21;;;;;;;9.60;6.03;;;;;;;;;;6188558;28;20428;-81
2023/06/14 04:29:26;;;;;;;8.32;5.68;;;;;;;;;;6187325;28;20046;-79
2023/06/14 04:32:38;;;;;;;10.02;5.82;;;;;;;;;;6182731;28;20038;-79
2023/06/14 04:35:42;;;;;;;9.68;5.82;;;;;;;;;;6178498;28;20092;-80
2023/06/14 04:38:48;;;;;;;9.10;6.28;;;;;;;;;;6200997;28;20736;-81
2023/06/14 04:41:52;;;;;;;8.75;5.75;;;;;;;;;;6183482;28;20046;-80
2023/06/14 04:44:55;;;;;;;7.63;5.30;;;;;;;;;;6169171;28;20054;-78
2023/06/14 04:48:01;;;;;;;9.02;5.75;;;;;;;;;;6190053;28;20089;-79
2023/06/14 04:51:03;;;;;;;8.32;5.25;;;;;;;;;;6179236;28;20408;-79
2023/06/14 04:54:09;;;;;;;8.93;5.53;;;;;;;;;;6202157;28;20046;-79
2023/06/14 04:57:13;;;;;;;9.38;6.10;;;;;;;;;;6204271;28;20085;-80
2023/06/14 05:00:16;;;;;;;9.55;5.20;;;;;;;;;;6206457;28;20464;-79
2023/06/14 05:03:20;;;;;;;8.30;4.50;;;;;;;;;;6172007;28;20387;-79
2023/06/14 05:06:22;;;;;;;7.65;4.82;;;;;;;;;;6198080;28;20463;-79
2023/06/14 05:09:24;;;;;;;6.93;4.03;;;;;;;;;;6182499;28;20043;-81
2023/06/14 05:12:26;;;;;;;6.00;4.35;;;;;;;;;;6172381;28;20732;-79
2023/06/14 05:15:29;;;;;;;7.30;4.25;;;;;;;;;;6166133;28;20057;-80
2023/06/14 05:18:31;;;;;;;6.05;4.03;;;;;;;;;;6194691;28;20054;-78
2023/06/14 05:21:35;;;;;;;5.70;4.00;;;;;;;;;;6196540;28;20049;-82
2023/06/14 05:24:44;;;;;;;8.20;4.05;;;;;;;;;;6198260;28;20053;-78
2023/06/14 05:27:45;;;;;;;4.75;3.30;;;;;;;;;;6182476;28;20046;-79
2023/06/14 05:30:47;;;;;;;5.20;4.00;;;;;;;;;;6198465;28;20041;-81
2023/06/14 05:33:49;;;;;;;7.05;3.60;;;;;;;;;;6177780;28;20880;-79
2023/06/14 05:36:51;;;;;;;6.13;3.42;;;;;;;;;;6190190;28;20049;-79
2023/06/14 05:39:52;;;;;;;4.03;3.30;;;;;;;;;;6186722;28;21722;-79
2023/06/14 05:42:54;;;;;;;4.15;3.08;;;;;;;;;;6185441;28;20377;-79
2023/06/14 05:45:56;;;;;;;4.38;3.20;;;;;;;;;;6204484;28;20053;-79
2023/06/14 05:48:58;;;;;;;4.68;3.40;;;;;;;;;;6176461;28;20099;-78
2023/06/14 05:51:59;;;;;;;4.20;3.22;;;;;;;;;;6183850;28;20501;-79
2023/06/14 05:55:01;;;;;;;9.52;3.72;;;;;;;;;;6183067;28;20160;-80
2023/06/14 05:58:02;;;;;;;8.15;3.42;;;;;;;;;;6207441;28;20411;-81
2023/06/14 06:01:04;;;;;;;4.38;3.25;;;;;;;;;;6176862;28;20392;-79
2023/06/14 06:04:06;;;;;;;7.40;3.33;;;;;;;;;;6178490;28;20096;-80
2023/06/14 06:07:08;;;;;;;5.20;3.40;;;;;;;;;;6182348;28;20057;-79
2023/06/14 06:10:10;;;;;;;4.28;3.40;;;;;;;;;;6198891;28;20053;-78
2023/06/14 06:13:12;;;;;;;5.38;3.13;;;;;;;;;;6187410;28;20081;-80
2023/06/14 06:16:14;;;;;;;5.55;3.13;;;;;;;;;;6164633;28;20195;-82
2023/06/14 06:19:16;;;;;;;7.13;3.28;;;;;;;;;;6187472;28;20057;-80
2023/06/14 06:22:18;;;;;;;4.75;3.10;;;;;;;;;;6197694;28;21169;-79
2023/06/14 06:25:19;;;;;;;6.53;3.22;;;;;;;;;;6186953;28;20073;-79
2023/06/14 06:28:21;;;;;;;4.22;3.20;;;;;;;;;;6183175;28;20046;-79
2023/06/14 06:31:23;;;;;;;4.07;3.17;;;;;;;;;;6182405;28;20168;-79
2023/06/14 06:34:24;;;;;;;3.25;2.70;;;;;;;;;;6191294;28;20053;-81
2023/06/14 06:37:26;;;;;;;3.80;3.08;;;;;;;;;;6183453;28;20531;-78
2023/06/14 06:40:27;;;;;;;3.28;2.90;;;;;;;;;;6180437;28;20172;-79
2023/06/14 06:43:30;;;;;;;7.25;3.10;;;;;;;;;;6191125;28;20069;-78
2023/06/14 06:46:33;;;;;;;5.10;2.97;;;;;;;;;;6187550;28;20046;-81
2023/06/14 06:49:35;;;;;;;4.97;3.10;;;;;;;;;;6176767;28;20046;-80
2023/06/14 06:52:37;;;;;;;4.70;3.22;;;;;;;;;;6183241;28;20046;-78
2023/06/14 06:55:38;;;;;;;3.55;2.90;;;;;;;;;;6194721;28;20050;-80
2023/06/14 06:58:40;;;;;;;5.10;3.15;;;;;;;;;;6205440;28;20050;-80
2023/06/14 07:01:41;;;;;;;5.13;2.80;;;;;;;;;;6178279;28;20054;-82
2023/06/14 07:04:43;;;;;;;4.00;2.65;;;;;;;;;;6182716;28;20226;-79
2023/06/14 07:07:45;;;;;;;4.07;3.00;;;;;;;;;;6199949;28;20046;-79
2023/06/14 07:10:47;;;;;;;6.65;3.10;;;;;;;;;;6197154;28;20157;-80
2023/06/14 07:13:48;;;;;;;3.75;2.63;;;;;;;;;;6202179;28;20053;-81
2023/06/14 07:16:50;;;;;;;2.97;2.67;;;;;;;;;;6195771;28;20193;-80
2023/06/14 07:19:53;;;;;;;3.37;2.50;;;;;;;;;;6179498;28;20069;-79
2023/06/14 07:22:54;;;;;;;10.98;3.00;;;;;;;;;;6196650;28;20054;-80
2023/06/14 07:25:56;;;;;;;3.08;2.75;;;;;;;;;;6195150;28;20515;-79
2023/06/14 07:28:58;;;;;;;4.15;3.55;;;;;;;;;;6182543;28;20046;-79
2023/06/14 07:31:59;;;;;;;3.75;2.28;;;;;;;;;;6197270;28;20539;-82
2023/06/14 07:35:02;;;;;;;2.83;2.50;;;;;;;;;;6189685;28;20058;-82
2023/06/14 07:38:04;;;;;;;2.40;2.20;;;;;;;;;;6200176;28;20143;-80
2023/06/14 07:41:07;;;;;;;2.90;2.10;;;;;;;;;;6200637;28;20053;-80
2023/06/14 07:44:08;;;;;;;2.27;1.80;;;;;;;;;;6204889;28;20132;-79
2023/06/14 07:47:10;;;;;;;3.05;2.03;;;;;;;;;;6200360;28;20045;-79
2023/06/14 07:50:13;;;;;;;1.90;1.70;;;;;;;;;;6200832;28;20073;-79
2023/06/14 07:53:14;;;;;;;;;;;;;;;;;;6203334;28;20128;-83
2023/06/14 07:56:16;;;;;;;2.72;1.50;;;;;;;;;;6188248;28;19987;-83
2023/06/14 07:59:18;;;;;;;1.50;1.40;;;;;;;;;;6205013;28;20507;-79
2023/06/14 08:02:19;;;;;;;2.33;1.70;;;;;;;;;;6180420;28;20042;-81
2023/06/14 08:05:21;;;;;;;2.38;1.55;;;;;;;;;;6189827;28;20046;-79
2023/06/14 08:08:23;;;;;;;2.20;2.00;;;;;;;;;;6189474;28;20627;-82
2023/06/14 08:11:25;;;;;;;2.65;1.88;;;;;;;;;;6184569;28;20057;-79
2023/06/14 08:14:27;;;;;;;1.88;1.60;;;;;;;;;;6187253;28;20052;-80
2023/06/14 08:17:28;;;;;;;3.63;1.67;;;;;;;;;;6196873;28;20078;-81
2023/06/14 08:20:31;;;;;;;2.85;1.77;;;;;;;;;;6194059;28;20519;-80
2023/06/14 08:23:33;;;;;;;1.70;1.40;;;;;;;;;;6198209;28;20189;-80
2023/06/14 08:26:36;;;;;;;1.45;1.30;;;;;;;;;;6198163;28;20528;-81
2023/06/14 08:29:40;;;;;;;2.95;1.60;;;;;;;;;;6186928;28;20136;-80
2023/06/14 08:32:41;;;;;;;1.77;1.52;;;;;;;;;;6175884;28;20046;-79
2023/06/14 08:35:43;;;;;;;2.90;1.50;;;;;;;;;;6197882;28;20038;-80
2023/06/14 08:38:45;;;;;;;3.13;1.80;;;;;;;;;;6179755;28;20448;-80
2023/06/14 08:41:48;;;;;;;2.15;1.38;;;;;;;;;;6187499;28;20058;-82
2023/06/14 08:44:49;;;;;;;;;;;;;;;;;;6192551;28;20075;-83
2023/06/14 08:47:57;;;;;;;2.47;1.38;;;;;;;;;;6191260;28;20038;-83
2023/06/14 08:51:03;;;;;;;4.90;1.60;;;;;;;;;;6195280;28;20046;-80
2023/06/14 08:54:06;;;;;;;1.73;1.63;;;;;;;;;;6198964;28;20045;-81
2023/06/14 08:57:12;;;;;;;2.13;1.67;;;;;;;;;;6203881;28;20034;-80
2023/06/14 09:00:14;;;;;;;3.10;1.77;;;;;;;;;;6179923;28;20465;-81
2023/06/14 09:03:16;;;;;;;;;;;;;;;;;;6199102;28;20183;-80
2023/06/14 09:06:19;;;;;;;2.05;1.85;;;;;;;;;;6196918;28;20061;-79
2023/06/14 09:09:22;;;;;;;2.42;1.90;;;;;;;;;;6196026;28;20053;-81
2023/06/14 09:12:24;;;;;;;3.47;2.28;;;;;;;;;;6198939;28;20407;-78
2023/06/14 09:15:26;;;;;;;4.63;2.05;;;;;;;;;;6182058;28;20053;-79
2023/06/14 09:18:38;;;;;;;2.50;2.30;;;;;;;;;;6196503;28;20146;-80
2023/06/14 09:21:40;;;;;;;6.10;2.30;;;;;;;;;;6201369;28;20050;-79
2023/06/14 09:24:42;;;;;;;3.55;2.50;;;;;;;;;;6184060;28;20049;-79
2023/06/14 09:27:47;;;;;;;3.00;2.38;;;;;;;;;;6198403;28;20080;-79
2023/06/14 09:30:48;;;;;;;2.78;2.22;;;;;;;;;;6183582;28;20072;-79
2023/06/14 09:33:51;;;;;;;3.97;2.10;;;;;;;;;;6200233;28;20050;-80
2023/06/14 09:36:52;;;;;;;4.95;2.50;;;;;;;;;;6189730;28;20092;-80
2023/06/14 09:39:54;;;;;;;3.25;2.05;;;;;;;;;;6201214;28;20049;-80
2023/06/14 09:42:57;;;;;;;5.57;2.50;;;;;;;;;;6192528;28;20045;-82
2023/06/14 09:46:04;;;;;;;6.72;2.72;;;;;;;;;;6202360;28;20057;-80
2023/06/14 09:49:08;;;;;;;4.18;2.50;;;;;;;;;;6191284;28;20558;-82
2023/06/14 09:52:14;;;;;;;3.15;2.13;;;;;;;;;;6200720;28;20082;-81
2023/06/14 09:55:18;;;;;;;2.67;2.30;;;;;;;;;;6203370;28;20062;-81
2023/06/14 09:58:23;;;;;;;4.85;2.47;;;;;;;;;;6189441;28;20042;-81
2023/06/14 10:01:29;;;;;;;3.55;2.60;;;;;;;;;;6204091;28;20074;-80
2023/06/14 10:04:32;;;;;;;4.00;2.63;;;;;;;;;;6198970;28;20042;-82
2023/06/14 10:07:52;;;;;;;4.03;2.70;;;;;;;;;;6203569;28;20424;-80
2023/06/14 10:10:57;;;;;;;3.70;2.67;;;;;;;;;;6189859;28;20069;-81
2023/06/14 10:14:00;;;;;;;3.55;3.08;;;;;;;;;;6199681;28;20563;-81
2023/06/14 10:17:10;;;;;;;3.05;2.60;;;;;;;;;;6184630;28;20452;-81
2023/06/14 10:20:30;;;;;;;4.03;2.35;;;;;;;;;;6196701;28;20493;-80
2023/06/14 10:23:37;;;;;;;4.03;2.80;;;;;;;;;;6203767;28;20041;-79
2023/06/14 10:26:51;;;;;;;3.25;2.50;;;;;;;;;;6202460;28;20053;-80
2023/06/14 10:29:53;;;;;;;2.78;2.40;;;;;;;;;;6198246;28;20128;-78
2023/06/14 10:33:06;;;;;;;2.73;2.30;;;;;;;;;;6188344;28;20035;-77
2023/06/14 10:36:34;;;;;;;3.72;2.30;;;;;;;;;;6196247;28;20196;-79
2023/06/14 10:39:41;;;;;;;2.88;2.30;;;;;;;;;;6200672;28;20096;-80
2023/06/14 10:42:51;;;;;;;4.07;2.92;;;;;;;;;;6183009;28;20044;-79
2023/06/14 10:46:17;;;;;;;2.92;2.25;;;;;;;;;;6180037;28;20050;-78
2023/06/14 10:49:19;;;;;;;2.72;2.30;;;;;;;;;;6192828;28;20049;-79
2023/06/14 10:52:24;;;;;;;5.47;2.40;;;;;;;;;;6186072;28;20061;-79
2023/06/14 10:55:34;;;;;;;3.42;2.50;;;;;;;;;;6197443;28;20057;-80
2023/06/14 10:58:36;;;;;;;2.67;2.10;;;;;;;;;;6180277;28;20064;-79
2023/06/14 11:02:03;;;;;;;2.55;2.35;;;;;;;;;;6192248;28;20057;-79
2023/06/14 11:05:10;;;;;;;2.40;2.20;;;;;;;;;;6194160;28;20112;-79
2023/06/14 11:08:32;;;;;;;2.97;2.40;;;;;;;;;;6197916;28;20046;-79
2023/06/14 11:11:35;;;;;;;;;;;;;;;;;;6183627;28;20073;-78
2023/06/14 11:14:36;;;;;;;2.53;1.97;;;;;;;;;;6193933;28;19922;-79
2023/06/14 11:17:38;;;;;;;2.63;2.42;;;;;;;;;;6189030;28;20128;-82
2023/06/14 11:20:40;;;;;;;2.63;2.42;;;;;;;;;;6198278;28;20155;-84
2023/06/14 11:23:42;;;;;;;4.47;2.33;;;;;;;;;;6196930;28;20046;-78
2023/06/14 11:26:45;;;;;;;6.32;2.50;;;;;;;;;;6198474;28;20180;-78
2023/06/14 11:29:50;;;;;;;2.38;2.17;;;;;;;;;;6178751;28;20539;-81
2023/06/14 11:32:53;;;;;;;2.17;1.98;;;;;;;;;;6194119;28;20069;-78
2023/06/14 11:36:02;;;;;;;5.05;2.60;;;;;;;;;;6198853;28;20038;-80
2023/06/14 11:39:06;;;;;;;3.45;2.20;;;;;;;;;;6204065;28;20047;-80
2023/06/14 11:42:08;;;;;;;3.17;2.13;;;;;;;;;;6189178;28;20046;-80
2023/06/14 11:45:11;;;;;;;2.50;2.30;;;;;;;;;;6187950;28;20043;-80
2023/06/14 11:48:13;;;;;;;2.83;2.25;;;;;;;;;;6201557;28;20143;-79
2023/06/14 11:51:15;;;;;;;3.22;2.17;;;;;;;;;;6204343;28;20486;-80
2023/06/14 11:54:16;;;;;;;3.35;2.10;;;;;;;;;;6192015;28;20420;-79
2023/06/14 11:57:18;;;;;;;4.60;2.42;;;;;;;;;;6171411;28;20051;-80
2023/06/14 12:00:25;;;;;;;3.03;2.25;;;;;;;;;;6183201;28;20688;-82
2023/06/14 12:03:30;;;;;;;4.00;1.98;;;;;;;;;;6200195;28;20464;-79
2023/06/14 12:06:39;;;;;;;2.75;2.55;;;;;;;;;;6186586;28;20042;-81
2023/06/14 12:09:44;;;;;;;2.88;1.98;;;;;;;;;;6204775;28;20052;-79
2023/06/14 12:12:46;;;;;;;3.42;2.10;;;;;;;;;;6190665;28;20049;-79
2023/06/14 12:15:55;;;;;;;2.30;2.10;;;;;;;;;;6204441;28;20041;-79
2023/06/14 12:19:00;;;;;;;2.47;2.08;;;;;;;;;;6199531;28;20045;-80
2023/06/14 12:22:04;;;;;;;2.80;2.05;;;;;;;;;;6204828;28;20073;-79
2023/06/14 12:25:09;;;;;;;2.60;2.30;;;;;;;;;;6202064;28;20080;-79
2023/06/14 12:28:10;;;;;;;3.38;2.17;;;;;;;;;;6202727;28;20416;-80
2023/06/14 12:31:13;;;;;;;2.50;2.10;;;;;;;;;;6190944;28;20061;-80
2023/06/14 12:34:15;;;;;;;4.03;2.15;;;;;;;;;;6202959;28;20053;-81
2023/06/14 12:37:17;;;;;;;3.35;2.25;;;;;;;;;;6172171;28;20141;-80
2023/06/14 12:40:19;;;;;;;3.40;2.53;;;;;;;;;;6203159;28;20045;-81
2023/06/14 12:43:20;;;;;;;5.38;2.55;;;;;;;;;;6194353;28;20052;-82
2023/06/14 12:46:22;;;;;;;2.37;2.10;;;;;;;;;;6186625;28;20046;-80
2023/06/14 12:49:24;;;;;;;2.60;2.40;;;;;;;;;;6200918;28;20043;-80
2023/06/14 12:52:26;;;;;;;3.50;2.50;;;;;;;;;;6182566;28;20421;-79
2023/06/14 12:55:28;;;;;;;4.00;2.50;;;;;;;;;;6187793;28;20132;-80
2023/06/14 12:58:30;;;;;;;3.20;2.10;;;;;;;;;;6195049;28;20133;-82
2023/06/14 13:01:32;;;;;;;2.75;2.55;;;;;;;;;;6179466;28;20914;-81
2023/06/14 13:04:34;;;;;;;3.07;2.70;;;;;;;;;;6169941;28;20050;-81
2023/06/14 13:07:35;;;;;;;3.05;2.50;;;;;;;;;;6188708;28;20533;-79
2023/06/14 13:10:37;;;;;;;5.28;2.63;;;;;;;;;;6181660;28;20140;-79
2023/06/14 13:13:39;;;;;;;4.47;2.60;;;;;;;;;;6198434;28;20050;-80
2023/06/14 13:16:40;;;;;;;2.72;2.53;;;;;;;;;;6183524;28;20508;-79
2023/06/14 13:19:42;;;;;;;2.80;2.50;;;;;;;;;;6173379;28;20124;-83
2023/06/14 13:22:44;;;;;;;2.60;2.40;;;;;;;;;;6201812;28;20089;-80
2023/06/14 13:25:45;;;;;;;3.10;2.80;;;;;;;;;;6167096;28;20499;-79
2023/06/14 13:28:47;;;;;;;3.77;2.60;;;;;;;;;;6198404;28;20441;-80
2023/06/14 13:31:49;;;;;;;3.10;2.30;;;;;;;;;;6197719;28;20093;-80
2023/06/14 13:34:50;;;;;;;4.32;2.40;;;;;;;;;;6176741;28;20658;-79
2023/06/14 13:37:52;;;;;;;2.88;2.65;;;;;;;;;;6183160;28;20057;-80
2023/06/14 13:40:55;;;;;;;4.00;2.63;;;;;;;;;;6202962;28;20177;-82
2023/06/14 13:43:58;;;;;;;4.57;2.60;;;;;;;;;;6182027;28;20052;-80
2023/06/14 13:47:00;;;;;;;3.92;2.70;;;;;;;;;;6207904;28;20512;-82
2023/06/14 13:50:03;;;;;;;2.85;2.22;;;;;;;;;;6201234;28;20125;-82
2023/06/14 13:53:04;;;;;;;2.67;2.47;;;;;;;;;;6190372;28;20050;-80
2023/06/14 13:56:06;;;;;;;4.77;2.70;;;;;;;;;;6175003;28;20551;-82
2023/06/14 13:59:09;;;;;;;2.75;2.50;;;;;;;;;;6193158;28;20047;-81
2023/06/14 14:02:11;;;;;;;3.15;2.85;;;;;;;;;;6195859;28;20095;-79
2023/06/14 14:05:13;;;;;;;4.30;2.60;;;;;;;;;;6183518;28;20086;-79
2023/06/14 14:08:15;;;;;;;3.00;2.67;;;;;;;;;;6200838;28;20120;-80
2023/06/14 14:11:17;;;;;;;2.70;2.50;;;;;;;;;;6168817;28;20152;-81
2023/06/14 14:14:20;;;;;;;3.33;2.60;;;;;;;;;;6178414;28;20042;-82
2023/06/14 14:17:22;;;;;;;;;;;;;;;;;;6199833;28;20804;-80
2023/06/14 14:20:24;;;;;;;;;;;;;;;;;;6200514;28;19921;-84
2023/06/14 14:23:26;;;;;;;2.92;2.45;;;;;;;;;;6183969;28;19921;-80
2023/06/14 14:26:28;;;;;;;3.03;2.78;;;;;;;;;;6180566;28;20053;-81
2023/06/14 14:29:29;;;;;;;3.28;2.60;;;;;;;;;;6185300;28;20575;-81
2023/06/14 14:32:31;;;;;;;2.78;2.58;;;;;;;;;;6199359;28;20046;-80
2023/06/14 14:35:33;;;;;;;2.50;2.30;;;;;;;;;;6200592;28;20412;-80
2023/06/14 14:38:34;;;;;;;3.35;2.80;;;;;;;;;;6173782;28;20580;-81
2023/06/14 14:41:37;;;;;;;4.40;2.47;;;;;;;;;;6202579;28;20084;-82
2023/06/14 14:44:44;;;;;;;5.70;2.92;;;;;;;;;;6195060;28;20168;-80
2023/06/14 14:47:45;;;;;;;2.85;2.55;;;;;;;;;;6182067;28;20530;-79
2023/06/14 14:50:47;;;;;;;4.28;3.20;;;;;;;;;;6187991;28;20069;-83
2023/06/14 14:53:49;;;;;;;3.03;2.60;;;;;;;;;;6200778;28;20037;-81
2023/06/14 14:56:51;;;;;;;3.97;2.77;;;;;;;;;;6184134;28;20128;-79
2023/06/14 14:59:53;;;;;;;3.25;2.95;;;;;;;;;;6183979;28;20111;-80
2023/06/14 15:02:54;;;;;;;3.77;2.67;;;;;;;;;;6193417;28;20042;-80
2023/06/14 15:05:56;;;;;;;3.10;2.90;;;;;;;;;;6192333;28;20460;-81
2023/06/14 15:08:58;;;;;;;4.27;2.60;;;;;;;;;;6181330;28;20058;-79
2023/06/14 15:11:59;;;;;;;4.67;2.60;;;;;;;;;;6177605;28;20050;-82
2023/06/14 15:15:02;;;;;;;2.63;2.40;;;;;;;;;;6198196;28;20173;-80
2023/06/14 15:18:04;;;;;;;4.10;2.80;;;;;;;;;;6195490;28;20497;-79
2023/06/14 15:21:05;;;;;;;2.88;2.63;;;;;;;;;;6203843;28;20053;-79
2023/06/14 15:24:07;;;;;;;3.47;3.07;;;;;;;;;;6201333;28;20514;-79
2023/06/14 15:27:10;;;;;;;3.30;3.00;;;;;;;;;;6193879;28;20052;-81
2023/06/14 15:30:13;;;;;;;2.95;2.75;;;;;;;;;;6196722;28;20437;-79
2023/06/14 15:33:15;;;;;;;4.28;2.90;;;;;;;;;;6205170;28;20720;-79
2023/06/14 15:36:16;;;;;;;3.05;2.65;;;;;;;;;;6192432;28;20147;-83
2023/06/14 15:39:18;;;;;;;3.15;2.88;;;;;;;;;;6192073;28;20050;-79
2023/06/14 15:42:20;;;;;;;2.97;2.72;;;;;;;;;;6212410;28;20077;-79
2023/06/14 15:45:21;;;;;;;2.93;2.60;;;;;;;;;;6195490;28;20054;-79
2023/06/14 15:48:23;;;;;;;4.33;2.90;;;;;;;;;;6190661;28;20042;-82
2023/06/14 15:51:25;;;;;;;3.47;2.80;;;;;;;;;;6205170;28;20062;-82
2023/06/14 15:54:27;;;;;;;4.60;2.77;;;;;;;;;;6205905;28;20046;-80
2023/06/14 15:57:29;;;;;;;2.75;2.55;;;;;;;;;;6192936;28;20458;-78
2023/06/14 16:00:31;;;;;;;;;;;;;;;;;;6189982;28;20046;-80
2023/06/14 16:03:32;;;;;;;3.25;2.75;;;;;;;;;;6200584;28;20452;-80
2023/06/14 16:06:35;;;;;;;5.07;3.03;;;;;;;;;;6189485;28;20049;-79
2023/06/14 16:09:37;;;;;;;4.28;2.83;;;;;;;;;;6191909;28;20069;-80
2023/06/14 16:12:39;;;;;;;3.90;2.73;;;;;;;;;;6198821;28;20050;-79
2023/06/14 16:15:40;;;;;;;3.67;2.93;;;;;;;;;;6200016;28;20080;-81
2023/06/14 16:18:42;;;;;;;3.77;2.80;;;;;;;;;;6202506;28;20043;-81
2023/06/14 16:21:44;;;;;;;4.67;3.13;;;;;;;;;;6199115;28;20509;-79
2023/06/14 16:24:45;;;;;;;4.20;3.15;;;;;;;;;;6195345;28;20689;-79
2023/06/14 16:27:47;;;;;;;3.30;2.97;;;;;;;;;;6196446;28;20574;-82
2023/06/14 16:30:49;;;;;;;3.37;3.00;;;;;;;;;;6197630;28;20045;-80
2023/06/14 16:33:54;;;;;;;3.30;3.00;;;;;;;;;;6170466;28;20124;-84
2023/06/14 16:36:56;;;;;;;4.43;3.00;;;;;;;;;;6180623;28;20049;-79
2023/06/14 16:39:58;;;;;;;3.50;3.08;;;;;;;;;;6180696;28;20050;-82
2023/06/14 16:42:59;;;;;;;3.57;3.17;;;;;;;;;;6179328;28;20049;-80
2023/06/14 16:46:01;;;;;;;3.30;3.00;;;;;;;;;;6196794;28;20140;-79
2023/06/14 16:49:03;;;;;;;3.40;2.80;;;;;;;;;;6197716;28;20042;-81
2023/06/14 16:52:05;;;;;;;4.00;3.00;;;;;;;;;;6200682;28;20046;-81
2023/06/14 16:55:07;;;;;;;3.20;2.90;;;;;;;;;;6200065;28;20046;-80
2023/06/14 16:58:09;;;;;;;3.45;2.80;;;;;;;;;;6192883;28;20050;-81
2023/06/14 17:01:12;;;;;;;4.00;2.60;;;;;;;;;;6195789;28;20046;-78
2023/06/14 17:04:14;;;;;;;3.70;2.63;;;;;;;;;;6194608;28;20057;-78
2023/06/14 17:07:15;;;;;;;3.50;2.90;;;;;;;;;;6197948;28;20042;-78
2023/06/14 17:10:17;;;;;;;3.33;2.85;;;;;;;;;;6178211;28;20050;-80
2023/06/14 17:13:20;;;;;;;3.75;3.05;;;;;;;;;;6192222;28;20730;-81
2023/06/14 17:16:22;;;;;;;3.38;3.08;;;;;;;;;;6179082;28;20057;-80
2023/06/14 17:19:24;;;;;;;5.30;3.17;;;;;;;;;;6196053;28;20042;-82
2023/06/14 17:22:26;;;;;;;3.97;2.75;;;;;;;;;;6183379;28;20054;-81
2023/06/14 17:25:29;;;;;;;3.28;2.97;;;;;;;;;;6199390;28;20061;-80
2023/06/14 17:28:30;;;;;;;2.92;2.67;;;;;;;;;;6171882;28;20049;-80
2023/06/14 17:31:32;;;;;;;2.97;2.67;;;;;;;;;;6192415;28;20050;-79
2023/06/14 17:34:34;;;;;;;2.90;2.70;;;;;;;;;;6200707;28;20103;-79
2023/06/14 17:37:35;;;;;;;3.42;3.08;;;;;;;;;;6198942;28;20077;-79
2023/06/14 17:40:37;;;;;;;4.38;3.05;;;;;;;;;;6174882;28;20053;-81
2023/06/14 17:43:51;;;;;;;3.50;2.60;;;;;;;;;;6195463;28;20046;-81
2023/06/14 17:46:53;;;;;;;4.70;3.10;;;;;;;;;;6199089;28;20511;-82
2023/06/14 17:49:55;;;;;;;3.35;2.80;;;;;;;;;;6181636;28;20072;-79
2023/06/14 17:52:58;;;;;;;3.78;3.38;;;;;;;;;;6200915;28;20398;-80
2023/06/14 17:56:03;;;;;;;3.38;2.58;;;;;;;;;;6196575;28;20077;-81
2023/06/14 17:59:04;;;;;;;5.30;3.50;;;;;;;;;;6193571;28;20046;-80
2023/06/14 18:02:07;;;;;;;4.70;3.10;;;;;;;;;;6178865;28;20073;-78
2023/06/14 18:05:08;;;;;;;5.53;4.03;;;;;;;;;;6187507;28;20569;-78
2023/06/14 18:08:10;;;;;;;3.70;2.72;;;;;;;;;;6202653;28;20070;-81
2023/06/14 18:11:12;;;;;;;3.50;2.65;;;;;;;;;;6199869;28;20191;-81
2023/06/14 18:14:14;;;;;;;2.70;2.50;;;;;;;;;;6196372;28;20527;-79
2023/06/14 18:17:16;;;;;;;4.43;2.60;;;;;;;;;;6170254;28;20060;-82